createdAt,value
2019-03-04T00:00:46.044Z,0.00
2019-03-04T00:01:46.011Z,0.00
2019-03-04T00:02:45.998Z,0.00
2019-03-04T00:03:45.983Z,0.00
2019-03-04T00:04:45.999Z,0.00
2019-03-04T00:05:45.969Z,0.00
2019-03-04T00:06:45.986Z,0.00
2019-03-04T00:07:45.940Z,0.00
2019-03-04T00:08:45.930Z,0.00
2019-03-04T00:09:45.944Z,0.00
2019-03-04T00:10:45.907Z,0.00
2019-03-04T00:11:45.899Z,0.00
2019-03-04T00:12:45.898Z,0.00
2019-03-04T00:13:45.874Z,0.00
2019-03-04T00:14:45.887Z,0.00
2019-03-04T00:15:45.853Z,0.00
2019-03-04T00:16:45.843Z,0.00
2019-03-04T00:17:45.830Z,0.00
2019-03-04T00:18:45.837Z,0.00
2019-03-04T00:19:45.839Z,0.00
2019-03-04T00:20:45.803Z,0.00
2019-03-04T00:21:45.789Z,0.00
2019-03-04T00:22:45.776Z,0.00
2019-03-04T00:23:45.767Z,0.00
2019-03-04T00:24:45.782Z,0.00
2019-03-04T00:25:45.767Z,0.00
2019-03-04T00:26:45.732Z,0.00
2019-03-04T00:27:45.723Z,0.00
2019-03-04T00:28:45.711Z,0.00
2019-03-04T00:29:45.712Z,0.00
2019-03-04T00:30:45.740Z,0.00
2019-03-04T00:31:45.680Z,0.00
2019-03-04T00:32:45.667Z,0.00
2019-03-04T00:33:45.660Z,0.00
2019-03-04T00:34:45.644Z,0.00
2019-03-04T00:35:45.657Z,0.00
2019-03-04T00:36:45.635Z,0.00
2019-03-04T00:37:45.634Z,0.00
2019-03-04T00:38:45.601Z,0.00
2019-03-04T00:39:45.589Z,0.00
2019-03-04T00:40:45.605Z,0.00
2019-03-04T00:41:45.568Z,0.00
2019-03-04T00:42:45.593Z,0.00
2019-03-04T00:43:45.548Z,0.00
2019-03-04T00:44:45.535Z,0.00
2019-03-04T00:45:45.549Z,0.00
2019-03-04T00:46:45.513Z,0.00
2019-03-04T00:47:45.501Z,0.00
2019-03-04T00:48:45.509Z,0.00
2019-03-04T00:49:45.485Z,0.00
2019-03-04T00:50:45.496Z,0.00
2019-03-04T00:51:45.470Z,0.00
2019-03-04T00:52:45.449Z,0.00
2019-03-04T00:53:45.439Z,0.00
2019-03-04T00:54:45.453Z,0.00
2019-03-04T00:55:45.446Z,0.00
2019-03-04T00:56:45.408Z,0.00
2019-03-04T00:57:45.392Z,0.00
2019-03-04T00:58:45.385Z,0.00
2019-03-04T00:59:45.370Z,0.00
2019-03-04T01:00:45.397Z,0.00
2019-03-04T01:01:45.351Z,0.00
2019-03-04T01:02:45.341Z,0.00
2019-03-04T01:03:45.328Z,0.00
2019-03-04T01:04:45.316Z,0.00
2019-03-04T01:05:45.328Z,0.00
2019-03-04T01:06:45.331Z,0.00
2019-03-04T01:07:45.283Z,0.00
2019-03-04T01:08:45.272Z,0.00
2019-03-04T01:09:45.262Z,0.00
2019-03-04T01:10:45.281Z,0.00
2019-03-04T01:11:45.239Z,0.00
2019-03-04T01:12:45.248Z,0.00
2019-03-04T01:13:45.217Z,0.00
2019-03-04T01:14:45.222Z,0.00
2019-03-04T01:15:45.198Z,0.00
2019-03-04T01:16:45.206Z,0.00
2019-03-04T01:17:45.177Z,0.00
2019-03-04T01:18:45.162Z,0.00
2019-03-04T01:19:45.166Z,0.00
2019-03-04T01:20:45.139Z,0.00
2019-03-04T01:21:45.154Z,0.00
2019-03-04T01:22:45.116Z,0.00
2019-03-04T01:23:45.110Z,0.00
2019-03-04T01:24:45.098Z,0.00
2019-03-04T01:25:45.131Z,0.00
2019-03-04T01:26:45.100Z,0.00
2019-03-04T01:27:45.064Z,0.00
2019-03-04T01:28:45.052Z,0.00
2019-03-04T01:29:45.041Z,0.00
2019-03-04T01:30:45.031Z,0.00
2019-03-04T01:31:45.088Z,0.00
2019-03-04T01:32:45.008Z,0.00
2019-03-04T01:33:44.998Z,0.00
2019-03-04T01:34:44.985Z,0.00
2019-03-04T01:35:44.976Z,0.00
2019-03-04T01:36:44.988Z,0.00
2019-03-04T01:37:44.981Z,0.00
2019-03-04T01:38:44.943Z,0.00
2019-03-04T01:39:44.931Z,0.00
2019-03-04T01:40:44.923Z,0.00
2019-03-04T01:41:44.937Z,0.00
2019-03-04T01:42:44.900Z,0.00
2019-03-04T01:43:44.917Z,0.00
2019-03-04T01:44:44.888Z,0.00
2019-03-04T01:45:44.866Z,0.00
2019-03-04T01:46:44.887Z,0.00
2019-03-04T01:47:44.845Z,0.00
2019-03-04T01:48:44.835Z,0.00
2019-03-04T01:49:44.842Z,0.00
2019-03-04T01:50:44.809Z,0.00
2019-03-04T01:51:44.825Z,0.00
2019-03-04T01:52:44.787Z,0.00
2019-03-04T01:53:44.778Z,0.00
2019-03-04T01:54:44.765Z,0.00
2019-03-04T01:55:44.763Z,0.00
2019-03-04T01:56:44.780Z,0.00
2019-03-04T01:57:44.731Z,0.00
2019-03-04T01:58:44.728Z,0.00
2019-03-04T01:59:44.710Z,0.00
2019-03-04T02:00:44.699Z,0.00
2019-03-04T02:01:44.728Z,0.00
2019-03-04T02:02:44.695Z,0.00
2019-03-04T02:03:44.666Z,0.00
2019-03-04T02:04:44.658Z,0.00
2019-03-04T02:05:44.643Z,0.00
2019-03-04T02:06:44.638Z,0.00
2019-03-04T02:07:44.647Z,0.00
2019-03-04T02:08:44.643Z,0.00
2019-03-04T02:09:44.605Z,0.00
2019-03-04T02:10:44.596Z,0.00
2019-03-04T02:11:44.576Z,0.00
2019-03-04T02:12:44.592Z,0.00
2019-03-04T02:13:44.554Z,0.00
2019-03-04T02:14:44.561Z,0.00
2019-03-04T02:15:44.537Z,0.00
2019-03-04T02:16:44.527Z,0.00
2019-03-04T02:17:44.537Z,0.00
2019-03-04T02:18:44.499Z,0.00
2019-03-04T02:19:44.488Z,0.00
2019-03-04T02:20:44.500Z,0.00
2019-03-04T02:21:44.467Z,0.00
2019-03-04T02:22:44.478Z,0.00
2019-03-04T02:23:44.444Z,0.00
2019-03-04T02:24:44.435Z,0.00
2019-03-04T02:25:44.422Z,0.00
2019-03-04T02:26:44.429Z,0.00
2019-03-04T02:27:44.423Z,0.00
2019-03-04T02:28:44.390Z,0.00
2019-03-04T02:29:44.382Z,0.00
2019-03-04T02:30:44.366Z,0.00
2019-03-04T02:31:44.358Z,0.00
2019-03-04T02:32:44.397Z,0.00
2019-03-04T02:33:44.337Z,0.00
2019-03-04T02:34:44.326Z,0.00
2019-03-04T02:35:44.315Z,0.00
2019-03-04T02:36:44.302Z,0.00
2019-03-04T02:37:44.320Z,0.00
2019-03-04T02:38:44.287Z,0.00
2019-03-04T02:39:44.271Z,0.00
2019-03-04T02:40:44.256Z,0.00
2019-03-04T02:41:44.245Z,0.00
2019-03-04T02:42:44.235Z,0.00
2019-03-04T02:43:44.253Z,0.00
2019-03-04T02:44:44.224Z,0.00
2019-03-04T02:45:44.204Z,0.00
2019-03-04T02:46:44.193Z,0.00
2019-03-04T02:47:44.181Z,0.00
2019-03-04T02:48:44.206Z,0.00
2019-03-04T02:49:44.159Z,0.00
2019-03-04T02:50:44.174Z,0.00
2019-03-04T02:51:44.144Z,0.00
2019-03-04T02:52:44.129Z,0.00
2019-03-04T02:53:44.142Z,0.00
2019-03-04T02:54:44.109Z,0.00
2019-03-04T02:55:44.093Z,0.00
2019-03-04T02:56:44.100Z,0.00
2019-03-04T02:57:44.073Z,0.00
2019-03-04T02:58:44.082Z,0.00
2019-03-04T02:59:44.064Z,0.00
2019-03-04T03:00:44.042Z,0.00
2019-03-04T03:01:44.032Z,0.00
2019-03-04T03:02:44.058Z,0.00
2019-03-04T03:03:44.031Z,0.00
2019-03-04T03:04:44.013Z,0.00
2019-03-04T03:05:43.984Z,0.00
2019-03-04T03:06:43.982Z,0.00
2019-03-04T03:07:43.969Z,0.00
2019-03-04T03:08:44.017Z,0.00
2019-03-04T03:09:43.938Z,0.00
2019-03-04T03:10:43.941Z,0.00
2019-03-04T03:11:43.919Z,0.00
2019-03-04T03:12:43.909Z,0.00
2019-03-04T03:13:43.921Z,0.00
2019-03-04T03:14:43.902Z,0.00
2019-03-04T03:15:43.877Z,0.00
2019-03-04T03:16:43.862Z,0.00
2019-03-04T03:17:43.853Z,0.00
2019-03-04T03:18:43.876Z,0.00
2019-03-04T03:19:43.829Z,0.00
2019-03-04T03:20:43.829Z,0.00
2019-03-04T03:21:43.808Z,0.00
2019-03-04T03:22:43.798Z,0.00
2019-03-04T03:23:43.808Z,0.00
2019-03-04T03:24:43.807Z,0.00
2019-03-04T03:25:43.764Z,0.00
2019-03-04T03:26:43.770Z,0.00
2019-03-04T03:27:43.744Z,0.00
2019-03-04T03:28:43.731Z,0.00
2019-03-04T03:29:43.740Z,0.00
2019-03-04T03:30:43.708Z,0.00
2019-03-04T03:31:43.709Z,0.00
2019-03-04T03:32:43.736Z,0.00
2019-03-04T03:33:43.678Z,0.00
2019-03-04T03:34:43.687Z,0.00
2019-03-04T03:35:43.650Z,0.00
2019-03-04T03:36:43.646Z,0.00
2019-03-04T03:37:43.637Z,0.00
2019-03-04T03:38:43.624Z,0.00
2019-03-04T03:39:43.642Z,0.00
2019-03-04T03:40:43.599Z,0.00
2019-03-04T03:41:43.587Z,0.00
2019-03-04T03:42:43.578Z,0.00
2019-03-04T03:43:43.579Z,0.00
2019-03-04T03:44:43.587Z,0.00
2019-03-04T03:45:43.542Z,0.00
2019-03-04T03:46:43.539Z,0.00
2019-03-04T03:47:43.521Z,0.00
2019-03-04T03:48:43.515Z,0.00
2019-03-04T03:49:43.536Z,0.00
2019-03-04T03:50:43.523Z,0.00
2019-03-04T03:51:43.478Z,0.00
2019-03-04T03:52:43.488Z,0.00
2019-03-04T03:53:43.457Z,0.00
2019-03-04T03:54:43.447Z,0.00
2019-03-04T03:55:43.461Z,0.00
2019-03-04T03:56:43.481Z,0.00
2019-03-04T03:57:43.411Z,0.00
2019-03-04T03:58:43.400Z,0.00
2019-03-04T03:59:43.400Z,0.00
2019-03-04T04:00:43.402Z,0.00
2019-03-04T04:01:43.371Z,0.00
2019-03-04T04:02:43.375Z,0.00
2019-03-04T04:03:43.364Z,0.00
2019-03-04T04:04:43.336Z,0.00
2019-03-04T04:05:43.352Z,0.00
2019-03-04T04:06:43.323Z,0.00
2019-03-04T04:07:43.300Z,0.00
2019-03-04T04:08:43.290Z,0.00
2019-03-04T04:09:43.308Z,0.00
2019-03-04T04:10:43.300Z,0.00
2019-03-04T04:11:43.259Z,0.00
2019-03-04T04:12:43.254Z,0.00
2019-03-04T04:13:43.236Z,0.00
2019-03-04T04:14:43.224Z,0.00
2019-03-04T04:15:43.270Z,0.00
2019-03-04T04:16:43.203Z,0.00
2019-03-04T04:17:43.218Z,0.00
2019-03-04T04:18:43.185Z,0.00
2019-03-04T04:19:43.168Z,0.00
2019-03-04T04:20:43.191Z,0.00
2019-03-04T04:21:43.148Z,0.00
2019-03-04T04:22:43.144Z,0.00
2019-03-04T04:23:43.124Z,0.00
2019-03-04T04:24:43.115Z,0.00
2019-03-04T04:25:43.150Z,0.00
2019-03-04T04:26:43.093Z,0.00
2019-03-04T04:27:43.094Z,0.00
2019-03-04T04:28:43.083Z,0.00
2019-03-04T04:29:43.059Z,0.00
2019-03-04T04:30:43.052Z,0.00
2019-03-04T04:31:43.060Z,0.00
2019-03-04T04:32:43.027Z,0.00
2019-03-04T04:33:43.028Z,0.00
2019-03-04T04:34:43.013Z,0.00
2019-03-04T04:35:42.992Z,0.00
2019-03-04T04:36:43.004Z,0.00
2019-03-04T04:37:42.980Z,0.00
2019-03-04T04:38:42.974Z,0.00
2019-03-04T04:39:42.954Z,0.00
2019-03-04T04:40:42.960Z,0.00
2019-03-04T04:41:42.963Z,0.00
2019-03-04T04:42:42.918Z,0.00
2019-03-04T04:43:42.905Z,0.00
2019-03-04T04:44:42.894Z,0.00
2019-03-04T04:45:42.884Z,0.00
2019-03-04T04:46:42.898Z,0.00
2019-03-04T04:47:42.908Z,0.00
2019-03-04T04:48:42.851Z,0.00
2019-03-04T04:49:42.840Z,0.00
2019-03-04T04:50:42.833Z,0.00
2019-03-04T04:51:42.841Z,0.00
2019-03-04T04:52:42.808Z,0.00
2019-03-04T04:53:42.834Z,0.00
2019-03-04T04:54:42.785Z,0.00
2019-03-04T04:55:42.777Z,0.00
2019-03-04T04:56:42.787Z,0.00
2019-03-04T04:57:42.754Z,0.00
2019-03-04T04:58:42.744Z,0.00
2019-03-04T04:59:42.756Z,0.00
2019-03-04T05:00:42.719Z,0.00
2019-03-04T05:01:42.745Z,0.00
2019-03-04T05:02:42.701Z,0.00
2019-03-04T05:03:42.687Z,0.00
2019-03-04T05:04:42.676Z,0.00
2019-03-04T05:05:42.681Z,0.00
2019-03-04T05:06:42.658Z,0.00
2019-03-04T05:07:42.668Z,0.00
2019-03-04T05:08:42.631Z,0.00
2019-03-04T05:09:42.621Z,0.00
2019-03-04T05:10:42.614Z,0.00
2019-03-04T05:11:42.621Z,0.00
2019-03-04T05:12:42.611Z,0.00
2019-03-04T05:13:42.578Z,0.00
2019-03-04T05:14:42.567Z,0.00
2019-03-04T05:15:42.557Z,0.00
2019-03-04T05:16:42.544Z,0.00
2019-03-04T05:17:42.575Z,0.00
2019-03-04T05:18:42.524Z,0.00
2019-03-04T05:19:42.512Z,0.00
2019-03-04T05:20:42.501Z,0.00
2019-03-04T05:21:42.490Z,0.00
2019-03-04T05:22:42.503Z,0.00
2019-03-04T05:23:42.502Z,0.00
2019-03-04T05:24:42.458Z,0.00
2019-03-04T05:25:42.448Z,0.00
2019-03-04T05:26:42.437Z,0.00
2019-03-04T05:27:42.454Z,0.00
2019-03-04T05:28:42.412Z,0.00
2019-03-04T05:29:42.415Z,0.00
2019-03-04T05:30:42.417Z,0.00
2019-03-04T05:31:42.379Z,0.00
2019-03-04T05:32:42.397Z,0.00
2019-03-04T05:33:42.363Z,0.00
2019-03-04T05:34:42.346Z,0.00
2019-03-04T05:35:42.336Z,0.00
2019-03-04T05:36:42.345Z,0.00
2019-03-04T05:37:42.353Z,0.00
2019-03-04T05:38:42.307Z,0.00
2019-03-04T05:39:42.298Z,0.00
2019-03-04T05:40:42.285Z,0.00
2019-03-04T05:41:42.272Z,0.00
2019-03-04T05:42:42.281Z,0.00
2019-03-04T05:43:42.287Z,0.00
2019-03-04T05:44:42.241Z,0.00
2019-03-04T05:45:42.228Z,0.00
2019-03-04T05:46:42.221Z,0.00
2019-03-04T05:47:42.208Z,0.00
2019-03-04T05:48:42.233Z,0.00
2019-03-04T05:49:42.188Z,0.00
2019-03-04T05:50:42.173Z,0.00
2019-03-04T05:51:42.162Z,0.00
2019-03-04T05:52:42.153Z,0.00
2019-03-04T05:53:42.168Z,0.00
2019-03-04T05:54:42.168Z,4.00
2019-03-04T05:55:42.119Z,4.00
2019-03-04T05:56:42.111Z,4.00
2019-03-04T05:57:42.100Z,4.00
2019-03-04T05:58:42.115Z,4.00
2019-03-04T05:59:42.081Z,4.00
2019-03-04T06:00:42.097Z,8.00
2019-03-04T06:01:42.058Z,4.00
2019-03-04T06:02:42.048Z,8.00
2019-03-04T06:03:42.056Z,8.00
2019-03-04T06:04:42.026Z,8.00
2019-03-04T06:05:42.011Z,8.00
2019-03-04T06:06:42.022Z,12.00
2019-03-04T06:07:41.988Z,8.00
2019-03-04T06:08:42.003Z,12.00
2019-03-04T06:09:41.970Z,12.00
2019-03-04T06:10:41.955Z,12.00
2019-03-04T06:11:41.948Z,16.00
2019-03-04T06:12:41.946Z,20.00
2019-03-04T06:13:41.969Z,32.00
2019-03-04T06:14:41.913Z,32.00
2019-03-04T06:15:41.901Z,32.00
2019-03-04T06:16:47.330Z,28.00
2019-03-04T06:17:42.878Z,40.00
2019-03-04T06:18:41.899Z,48.00
2019-03-04T06:19:43.956Z,52.00
2019-03-04T06:20:41.847Z,64.00
2019-03-04T06:21:41.835Z,68.00
2019-03-04T06:22:41.825Z,76.00
2019-03-04T06:23:41.851Z,100.00
2019-03-04T06:24:41.809Z,128.00
2019-03-04T06:25:41.800Z,192.00
2019-03-04T06:26:41.801Z,204.00
2019-03-04T06:27:41.775Z,272.00
2019-03-04T06:28:41.760Z,364.00
2019-03-04T06:29:41.771Z,460.00
2019-03-04T06:30:41.748Z,452.00
2019-03-04T06:31:41.753Z,456.00
2019-03-04T06:32:41.715Z,396.00
2019-03-04T06:33:41.705Z,356.00
2019-03-04T06:34:41.722Z,332.00
2019-03-04T06:35:41.684Z,304.00
2019-03-04T06:36:41.672Z,288.00
2019-03-04T06:37:41.671Z,232.00
2019-03-04T06:38:41.655Z,192.00
2019-03-04T06:39:41.663Z,208.00
2019-03-04T06:40:41.627Z,220.00
2019-03-04T06:41:41.619Z,212.00
2019-03-04T06:42:41.608Z,196.00
2019-03-04T06:43:41.602Z,224.00
2019-03-04T06:44:41.608Z,228.00
2019-03-04T06:45:41.572Z,192.00
2019-03-04T06:46:41.562Z,168.00
2019-03-04T06:47:41.550Z,168.00
2019-03-04T06:48:41.540Z,180.00
2019-03-04T06:49:41.577Z,180.00
2019-03-04T06:50:41.519Z,248.00
2019-03-04T06:51:41.508Z,380.00
2019-03-04T06:52:41.495Z,496.00
2019-03-04T06:53:41.484Z,488.00
2019-03-04T06:54:41.498Z,704.00
2019-03-04T06:55:41.488Z,588.00
2019-03-04T06:56:41.464Z,516.00
2019-03-04T06:57:41.441Z,476.00
2019-03-04T06:58:41.438Z,400.00
2019-03-04T06:59:41.445Z,332.00
2019-03-04T07:00:41.408Z,268.00
2019-03-04T07:01:41.423Z,260.00
2019-03-04T07:02:41.389Z,244.00
2019-03-04T07:03:41.391Z,212.00
2019-03-04T07:04:41.393Z,220.00
2019-03-04T07:05:41.353Z,216.00
2019-03-04T07:06:41.347Z,204.00
2019-03-04T07:07:41.351Z,232.00
2019-03-04T07:08:41.342Z,356.00
2019-03-04T07:09:41.350Z,448.00
2019-03-04T07:10:41.303Z,476.00
2019-03-04T07:11:41.289Z,452.00
2019-03-04T07:12:41.276Z,432.00
2019-03-04T07:13:41.289Z,464.00
2019-03-04T07:14:41.273Z,520.00
2019-03-04T07:15:41.276Z,520.00
2019-03-04T07:16:41.249Z,496.00
2019-03-04T07:17:41.222Z,532.00
2019-03-04T07:18:41.211Z,564.00
2019-03-04T07:19:41.204Z,588.00
2019-03-04T07:20:41.252Z,680.00
2019-03-04T07:21:41.206Z,860.00
2019-03-04T07:22:41.181Z,1132.00
2019-03-04T07:23:41.156Z,1436.00
2019-03-04T07:24:41.144Z,1728.00
2019-03-04T07:25:41.157Z,1852.00
2019-03-04T07:26:41.129Z,1852.00
2019-03-04T07:27:41.112Z,1784.00
2019-03-04T07:28:41.103Z,1720.00
2019-03-04T07:29:41.090Z,1616.00
2019-03-04T07:30:41.104Z,1452.00
2019-03-04T07:31:41.068Z,1308.00
2019-03-04T07:32:41.073Z,1144.00
2019-03-04T07:33:41.048Z,1012.00
2019-03-04T07:34:41.035Z,964.00
2019-03-04T07:35:41.049Z,960.00
2019-03-04T07:36:41.059Z,980.00
2019-03-04T07:37:41.003Z,1016.00
2019-03-04T07:38:41.027Z,1096.00
2019-03-04T07:39:40.982Z,1204.00
2019-03-04T07:40:40.996Z,1340.00
2019-03-04T07:41:40.962Z,1452.00
2019-03-04T07:42:40.950Z,1640.00
2019-03-04T07:43:40.939Z,1776.00
2019-03-04T07:44:40.934Z,1748.00
2019-03-04T07:45:40.943Z,1828.00
2019-03-04T07:46:40.912Z,2060.00
2019-03-04T07:47:40.895Z,2004.00
2019-03-04T07:48:40.884Z,1708.00
2019-03-04T07:49:40.872Z,1412.00
2019-03-04T07:50:40.897Z,1248.00
2019-03-04T07:51:40.851Z,1184.00
2019-03-04T07:52:40.845Z,1156.00
2019-03-04T07:53:46.313Z,1448.00
2019-03-04T07:54:41.818Z,2096.00
2019-03-04T07:55:40.833Z,2020.00
2019-03-04T07:56:40.805Z,2004.00
2019-03-04T07:57:40.788Z,2240.00
2019-03-04T07:58:40.776Z,2376.00
2019-03-04T07:59:40.765Z,3080.00
2019-03-04T08:00:40.786Z,3572.00
2019-03-04T08:01:40.740Z,3784.00
2019-03-04T08:02:40.735Z,3924.00
2019-03-04T08:03:40.728Z,3968.00
2019-03-04T08:04:40.709Z,4008.00
2019-03-04T08:05:40.697Z,4076.00
2019-03-04T08:06:40.710Z,4064.00
2019-03-04T08:07:40.678Z,4072.00
2019-03-04T08:08:40.666Z,4116.00
2019-03-04T08:09:40.681Z,4248.00
2019-03-04T08:10:40.642Z,4504.00
2019-03-04T08:11:40.655Z,4728.00
2019-03-04T08:12:40.620Z,4912.00
2019-03-04T08:13:40.609Z,5420.00
2019-03-04T08:14:40.598Z,5748.00
2019-03-04T08:15:40.617Z,5992.00
2019-03-04T08:16:40.605Z,6220.00
2019-03-04T08:17:40.566Z,6220.00
2019-03-04T08:18:40.559Z,6024.00
2019-03-04T08:19:40.543Z,5580.00
2019-03-04T08:20:40.531Z,5292.00
2019-03-04T08:21:40.574Z,5292.00
2019-03-04T08:22:40.514Z,5420.00
2019-03-04T08:23:40.499Z,5356.00
2019-03-04T08:24:40.491Z,5464.00
2019-03-04T08:25:40.479Z,5636.00
2019-03-04T08:26:40.489Z,5788.00
2019-03-04T08:27:40.511Z,7404.00
2019-03-04T08:28:40.450Z,7628.00
2019-03-04T08:29:40.438Z,7752.00
2019-03-04T08:30:40.421Z,6076.00
2019-03-04T08:31:40.436Z,6032.00
2019-03-04T08:32:40.400Z,6008.00
2019-03-04T08:33:40.388Z,6136.00
2019-03-04T08:34:40.396Z,6128.00
2019-03-04T08:35:40.367Z,6116.00
2019-03-04T08:36:40.380Z,5956.00
2019-03-04T08:37:40.345Z,5956.00
2019-03-04T08:38:40.370Z,6120.00
2019-03-04T08:39:40.326Z,6200.00
2019-03-04T08:40:40.316Z,5820.00
2019-03-04T08:41:40.344Z,5588.00
2019-03-04T08:42:40.294Z,5132.00
2019-03-04T08:43:40.280Z,4652.00
2019-03-04T08:44:40.267Z,3796.00
2019-03-04T08:45:40.258Z,3016.00
2019-03-04T08:46:40.271Z,2540.00
2019-03-04T08:47:40.256Z,2612.00
2019-03-04T08:48:40.224Z,2844.00
2019-03-04T08:49:40.217Z,3492.00
2019-03-04T08:50:40.205Z,4260.00
2019-03-04T08:51:40.243Z,6580.00
2019-03-04T08:52:40.182Z,6736.00
2019-03-04T08:53:40.182Z,6988.00
2019-03-04T08:54:40.185Z,7452.00
2019-03-04T08:55:40.150Z,6492.00
2019-03-04T08:56:40.142Z,6024.00
2019-03-04T08:57:40.150Z,6092.00
2019-03-04T08:58:40.121Z,6064.00
2019-03-04T08:59:40.106Z,6012.00
2019-03-04T09:00:40.105Z,6192.00
2019-03-04T09:01:40.096Z,6108.00
2019-03-04T09:02:40.095Z,6048.00
2019-03-04T09:03:40.060Z,5876.00
2019-03-04T09:04:40.051Z,5920.00
2019-03-04T09:05:40.043Z,6020.00
2019-03-04T09:06:40.029Z,5956.00
2019-03-04T09:07:40.052Z,5984.00
2019-03-04T09:08:40.016Z,5844.00
2019-03-04T09:09:39.995Z,6448.00
2019-03-04T09:10:39.985Z,6916.00
2019-03-04T09:11:39.980Z,7376.00
2019-03-04T09:12:40.031Z,8008.00
2019-03-04T09:13:39.965Z,8084.00
2019-03-04T09:14:39.946Z,8612.00
2019-03-04T09:15:39.942Z,7244.00
2019-03-04T09:16:39.920Z,6220.00
2019-03-04T09:17:39.931Z,5360.00
2019-03-04T09:18:39.906Z,5572.00
2019-03-04T09:19:39.885Z,4400.00
2019-03-04T09:20:39.875Z,4112.00
2019-03-04T09:21:39.879Z,4576.00
2019-03-04T09:22:39.887Z,3972.00
2019-03-04T09:23:39.840Z,3228.00
2019-03-04T09:24:39.831Z,2832.00
2019-03-04T09:25:39.821Z,2400.00
2019-03-04T09:26:39.809Z,2344.00
2019-03-04T09:27:39.824Z,2560.00
2019-03-04T09:28:39.788Z,2376.00
2019-03-04T09:29:39.786Z,2328.00
2019-03-04T09:30:39.766Z,3008.00
2019-03-04T09:31:39.786Z,2352.00
2019-03-04T09:32:39.765Z,2092.00
2019-03-04T09:33:39.737Z,2236.00
2019-03-04T09:34:39.720Z,2608.00
2019-03-04T09:35:39.709Z,2912.00
2019-03-04T09:36:39.698Z,2936.00
2019-03-04T09:37:39.715Z,3160.00
2019-03-04T09:38:39.686Z,3016.00
2019-03-04T09:39:39.664Z,3512.00
2019-03-04T09:40:39.655Z,3296.00
2019-03-04T09:41:39.645Z,4000.00
2019-03-04T09:42:39.660Z,3980.00
2019-03-04T09:43:39.629Z,3512.00
2019-03-04T09:44:39.631Z,3276.00
2019-03-04T09:45:39.604Z,3276.00
2019-03-04T09:46:39.589Z,3344.00
2019-03-04T09:47:39.600Z,3616.00
2019-03-04T09:48:39.565Z,3852.00
2019-03-04T09:49:39.554Z,3832.00
2019-03-04T09:50:39.555Z,4040.00
2019-03-04T09:51:39.553Z,4084.00
2019-03-04T09:52:39.561Z,3604.00
2019-03-04T09:53:39.938Z,2780.00
2019-03-04T09:54:39.498Z,2564.00
2019-03-04T09:55:39.488Z,2712.00
2019-03-04T09:56:39.477Z,3316.00
2019-03-04T09:57:39.476Z,3716.00
2019-03-04T09:58:39.480Z,4120.00
2019-03-04T09:59:39.447Z,3888.00
2019-03-04T10:00:39.435Z,4520.00
2019-03-04T10:01:39.423Z,5380.00
2019-03-04T10:02:39.411Z,5568.00
2019-03-04T10:03:39.444Z,4588.00
2019-03-04T10:04:39.390Z,4204.00
2019-03-04T10:05:39.377Z,4132.00
2019-03-04T10:06:39.366Z,4480.00
2019-03-04T10:07:39.358Z,5036.00
2019-03-04T10:08:39.366Z,5312.00
2019-03-04T10:09:39.347Z,6040.00
2019-03-04T10:10:39.321Z,7036.00
2019-03-04T10:11:39.311Z,6292.00
2019-03-04T10:12:39.300Z,5836.00
2019-03-04T10:13:39.314Z,5480.00
2019-03-04T10:14:39.278Z,5496.00
2019-03-04T10:15:39.289Z,5244.00
2019-03-04T10:16:39.256Z,6188.00
2019-03-04T10:17:39.247Z,5292.00
2019-03-04T10:18:39.261Z,5200.00
2019-03-04T10:19:39.221Z,5904.00
2019-03-04T10:20:39.212Z,6044.00
2019-03-04T10:21:39.227Z,5112.00
2019-03-04T10:22:39.189Z,5940.00
2019-03-04T10:23:39.220Z,4752.00
2019-03-04T10:24:39.174Z,3972.00
2019-03-04T10:25:39.157Z,4544.00
2019-03-04T10:26:39.146Z,4928.00
2019-03-04T10:27:39.150Z,4488.00
2019-03-04T10:28:39.158Z,4244.00
2019-03-04T10:29:39.113Z,5380.00
2019-03-04T10:30:39.100Z,7368.00
2019-03-04T10:31:39.095Z,7724.00
2019-03-04T10:32:39.078Z,8196.00
2019-03-04T10:33:39.089Z,6896.00
2019-03-04T10:34:39.082Z,7684.00
2019-03-04T10:35:39.057Z,9496.00
2019-03-04T10:36:39.035Z,9564.00
2019-03-04T10:37:39.053Z,10272.00
2019-03-04T10:38:39.033Z,9612.00
2019-03-04T10:39:39.026Z,9868.00
2019-03-04T10:40:38.996Z,10200.00
2019-03-04T10:41:38.981Z,9428.00
2019-03-04T10:42:38.970Z,8748.00
2019-03-04T10:43:38.957Z,8780.00
2019-03-04T10:44:38.981Z,8492.00
2019-03-04T10:45:38.938Z,7992.00
2019-03-04T10:46:38.926Z,9176.00
2019-03-04T10:47:38.915Z,8976.00
2019-03-04T10:48:38.903Z,7784.00
2019-03-04T10:49:38.918Z,9212.00
2019-03-04T10:50:38.896Z,12584.00
2019-03-04T10:51:38.888Z,12412.00
2019-03-04T10:52:38.862Z,9564.00
2019-03-04T10:53:38.846Z,9356.00
2019-03-04T10:54:38.876Z,11640.00
2019-03-04T10:55:42.305Z,12408.00
2019-03-04T10:56:40.692Z,11916.00
2019-03-04T10:57:38.818Z,9436.00
2019-03-04T10:58:38.799Z,8448.00
2019-03-04T10:59:38.806Z,7772.00
2019-03-04T11:00:38.771Z,7392.00
2019-03-04T11:01:38.762Z,7248.00
2019-03-04T11:02:38.751Z,8560.00
2019-03-04T11:03:38.749Z,7948.00
2019-03-04T11:04:38.754Z,6156.00
2019-03-04T11:05:38.719Z,7400.00
2019-03-04T11:06:38.705Z,7324.00
2019-03-04T11:07:38.696Z,6324.00
2019-03-04T11:08:38.684Z,6708.00
2019-03-04T11:09:38.715Z,7400.00
2019-03-04T11:10:38.669Z,5876.00
2019-03-04T11:11:38.652Z,5324.00
2019-03-04T11:12:38.639Z,5684.00
2019-03-04T11:13:38.629Z,5944.00
2019-03-04T11:14:38.618Z,6288.00
2019-03-04T11:15:38.628Z,5440.00
2019-03-04T11:16:38.616Z,4824.00
2019-03-04T11:17:38.586Z,5224.00
2019-03-04T11:18:38.578Z,6212.00
2019-03-04T11:19:38.571Z,6664.00
2019-03-04T11:20:38.578Z,6928.00
2019-03-04T11:21:38.541Z,7248.00
2019-03-04T11:22:38.536Z,5780.00
2019-03-04T11:23:38.520Z,5532.00
2019-03-04T11:24:38.509Z,5060.00
2019-03-04T11:25:38.526Z,4848.00
2019-03-04T11:26:38.486Z,4816.00
2019-03-04T11:27:38.475Z,3976.00
2019-03-04T11:28:38.471Z,4972.00
2019-03-04T11:29:38.463Z,4524.00
2019-03-04T11:30:38.470Z,3760.00
2019-03-04T11:31:38.438Z,4240.00
2019-03-04T11:32:38.419Z,3880.00
2019-03-04T11:33:38.410Z,3792.00
2019-03-04T11:34:38.401Z,4004.00
2019-03-04T11:35:38.429Z,3700.00
2019-03-04T11:36:38.380Z,3548.00
2019-03-04T11:37:38.371Z,3412.00
2019-03-04T11:38:38.354Z,3008.00
2019-03-04T11:39:38.347Z,2680.00
2019-03-04T11:40:38.357Z,2536.00
2019-03-04T11:41:38.355Z,2868.00
2019-03-04T11:42:38.313Z,2996.00
2019-03-04T11:43:38.325Z,2660.00
2019-03-04T11:44:38.289Z,2980.00
2019-03-04T11:45:38.303Z,3320.00
2019-03-04T11:46:38.289Z,3156.00
2019-03-04T11:47:38.255Z,2928.00
2019-03-04T11:48:38.256Z,4136.00
2019-03-04T11:49:38.231Z,4232.00
2019-03-04T11:50:38.245Z,3472.00
2019-03-04T11:51:38.210Z,2536.00
2019-03-04T11:52:38.199Z,2064.00
2019-03-04T11:53:38.196Z,2208.00
2019-03-04T11:54:38.195Z,2840.00
2019-03-04T11:55:38.190Z,2928.00
2019-03-04T11:56:38.157Z,2716.00
2019-03-04T11:57:38.143Z,2532.00
2019-03-04T11:58:38.134Z,2584.00
2019-03-04T11:59:38.121Z,2724.00
2019-03-04T12:00:38.158Z,2524.00
2019-03-04T12:01:38.109Z,2816.00
2019-03-04T12:02:39.195Z,2896.00
2019-03-04T12:03:38.077Z,3244.00
2019-03-04T12:04:38.071Z,3152.00
2019-03-04T12:05:38.058Z,2780.00
2019-03-04T12:06:38.080Z,3112.00
2019-03-04T12:07:38.035Z,3376.00
2019-03-04T12:08:38.022Z,3800.00
2019-03-04T12:09:38.014Z,3444.00
2019-03-04T12:10:38.003Z,3264.00
2019-03-04T12:11:38.556Z,3916.00
2019-03-04T12:12:37.987Z,3992.00
2019-03-04T12:13:37.972Z,3712.00
2019-03-04T12:14:37.955Z,2436.00
2019-03-04T12:15:37.949Z,1964.00
2019-03-04T12:16:37.965Z,1648.00
2019-03-04T12:17:37.926Z,1408.00
2019-03-04T12:18:37.931Z,1196.00
2019-03-04T12:19:37.921Z,928.00
2019-03-04T12:20:37.891Z,844.00
2019-03-04T12:21:37.902Z,1032.00
2019-03-04T12:22:37.870Z,1552.00
2019-03-04T12:23:37.861Z,1852.00
2019-03-04T12:24:37.847Z,2468.00
2019-03-04T12:25:37.845Z,2372.00
2019-03-04T12:26:37.859Z,2004.00
2019-03-04T12:27:37.811Z,1828.00
2019-03-04T12:28:37.802Z,1516.00
2019-03-04T12:29:37.790Z,1356.00
2019-03-04T12:30:37.783Z,1196.00
2019-03-04T12:31:37.814Z,916.00
2019-03-04T12:32:37.759Z,780.00
2019-03-04T12:33:37.746Z,656.00
2019-03-04T12:34:37.739Z,548.00
2019-03-04T12:35:37.725Z,448.00
2019-03-04T12:36:37.737Z,392.00
2019-03-04T12:37:37.716Z,444.00
2019-03-04T12:38:37.701Z,612.00
2019-03-04T12:39:37.683Z,1100.00
2019-03-04T12:40:37.672Z,2116.00
2019-03-04T12:41:37.686Z,2412.00
2019-03-04T12:42:37.647Z,3256.00